sensor_id;sensor_type;location;lat;lon;timestamp;pressure;altitude;pressure_sealevel;temperature;humidity
70458;BME280;57919;56.194;95.716;2022-07-06T00:08:01;97548.56;;;24.95;47.37
70458;BME280;57919;56.194;95.716;2022-07-06T00:18:03;97553.09;;;25.69;45.49
70458;BME280;57919;56.194;95.716;2022-07-06T00:28:05;97557.31;;;26.83;42.59
70458;BME280;57919;56.194;95.716;2022-07-06T00:38:07;97575.59;;;25.25;44.39
70458;BME280;57919;56.194;95.716;2022-07-06T00:48:09;97574.47;;;23.56;47.50
70458;BME280;57919;56.194;95.716;2022-07-06T00:58:11;97570.38;;;23.86;46.87
70458;BME280;57919;56.194;95.716;2022-07-06T01:08:13;97577.66;;;24.56;45.87
70458;BME280;57919;56.194;95.716;2022-07-06T01:18:16;97580.09;;;24.52;45.49
70458;BME280;57919;56.194;95.716;2022-07-06T01:28:18;97579.47;;;24.13;46.47
70458;BME280;57919;56.194;95.716;2022-07-06T01:38:21;97578.44;;;25.40;43.98
70458;BME280;57919;56.194;95.716;2022-07-06T01:48:22;97578.69;;;26.67;42.34
70458;BME280;57919;56.194;95.716;2022-07-06T01:58:24;97584.19;;;28.32;39.26
70458;BME280;57919;56.194;95.716;2022-07-06T02:08:27;97585.53;;;29.26;37.27
70458;BME280;57919;56.194;95.716;2022-07-06T02:18:30;97594.34;;;28.81;37.31
70458;BME280;57919;56.194;95.716;2022-07-06T02:28:32;97606.56;;;28.51;38.02
70458;BME280;57919;56.194;95.716;2022-07-06T02:38:35;97604.63;;;28.85;36.84
70458;BME280;57919;56.194;95.716;2022-07-06T02:48:37;97594.22;;;29.92;35.71
70458;BME280;57919;56.194;95.716;2022-07-06T02:58:40;97596.28;;;30.94;34.35
70458;BME280;57919;56.194;95.716;2022-07-06T03:08:42;97593.16;;;31.28;33.38
70458;BME280;57919;56.194;95.716;2022-07-06T03:18:45;97580.44;;;30.89;33.68
70458;BME280;57919;56.194;95.716;2022-07-06T03:28:47;97589.31;;;31.51;33.04
70458;BME280;57919;56.194;95.716;2022-07-06T03:38:50;97594.13;;;32.28;32.32
70458;BME280;57919;56.194;95.716;2022-07-06T03:48:52;97598.50;;;33.71;29.40
70458;BME280;57919;56.194;95.716;2022-07-06T03:59:01;97592.41;;;34.44;29.18
70458;BME280;57919;56.194;95.716;2022-07-06T04:09:07;97591.91;;;34.59;28.53
70458;BME280;57919;56.194;95.716;2022-07-06T04:19:09;97597.66;;;34.28;28.76
70458;BME280;57919;56.194;95.716;2022-07-06T04:29:11;97591.38;;;35.00;28.19
70458;BME280;57919;56.194;95.716;2022-07-06T04:39:14;97606.63;;;35.46;26.87
70458;BME280;57919;56.194;95.716;2022-07-06T04:49:16;97607.09;;;35.95;26.00
70458;BME280;57919;56.194;95.716;2022-07-06T04:59:18;97604.06;;;36.29;26.16
70458;BME280;57919;56.194;95.716;2022-07-06T05:09:21;97613.56;;;36.45;26.33
70458;BME280;57919;56.194;95.716;2022-07-06T05:19:24;97612.28;;;35.84;26.49
70458;BME280;57919;56.194;95.716;2022-07-06T05:29:26;97620.47;;;34.78;28.57
70458;BME280;57919;56.194;95.716;2022-07-06T05:39:29;97633.59;;;35.93;26.45
70458;BME280;57919;56.194;95.716;2022-07-06T05:49:31;97651.38;;;34.52;28.10
70458;BME280;57919;56.194;95.716;2022-07-06T05:59:52;97657.28;;;31.79;32.18
70458;BME280;57919;56.194;95.716;2022-07-06T06:09:54;97657.47;;;29.96;35.08
70458;BME280;57919;56.194;95.716;2022-07-06T06:19:57;97667.25;;;29.17;36.42
70458;BME280;57919;56.194;95.716;2022-07-06T06:29:59;97663.22;;;28.65;38.07
70458;BME280;57919;56.194;95.716;2022-07-06T06:40:02;97670.19;;;28.18;39.54
70458;BME280;57919;56.194;95.716;2022-07-06T06:50:04;97674.53;;;27.85;40.80
70458;BME280;57919;56.194;95.716;2022-07-06T07:00:07;97684.34;;;27.47;41.72
70458;BME280;57919;56.194;95.716;2022-07-06T07:10:10;97677.44;;;27.24;42.64
70458;BME280;57919;56.194;95.716;2022-07-06T07:20:12;97677.66;;;27.53;42.36
70458;BME280;57919;56.194;95.716;2022-07-06T07:30:14;97681.53;;;27.73;42.45
70458;BME280;57919;56.194;95.716;2022-07-06T07:40:16;97663.72;;;27.79;43.10
70458;BME280;57919;56.194;95.716;2022-07-06T07:50:18;97675.97;;;27.67;43.88
70458;BME280;57919;56.194;95.716;2022-07-06T08:00:20;97691.88;;;27.26;43.86
70458;BME280;57919;56.194;95.716;2022-07-06T08:10:23;97684.00;;;26.22;45.35
70458;BME280;57919;56.194;95.716;2022-07-06T08:20:25;97709.13;;;25.42;47.43
70458;BME280;57919;56.194;95.716;2022-07-06T08:30:27;97711.75;;;25.17;48.05
70458;BME280;57919;56.194;95.716;2022-07-06T08:40:33;97717.13;;;25.34;48.01
70458;BME280;57919;56.194;95.716;2022-07-06T08:50:38;97733.25;;;25.47;48.33
70458;BME280;57919;56.194;95.716;2022-07-06T09:00:40;97752.09;;;25.50;49.22
70458;BME280;57919;56.194;95.716;2022-07-06T09:10:42;97746.25;;;24.77;51.31
70458;BME280;57919;56.194;95.716;2022-07-06T09:20:44;97771.84;;;24.63;51.75
70458;BME280;57919;56.194;95.716;2022-07-06T09:30:46;97768.72;;;24.10;53.25
70458;BME280;57919;56.194;95.716;2022-07-06T09:40:48;97781.56;;;24.00;53.77
70458;BME280;57919;56.194;95.716;2022-07-06T09:50:54;97799.88;;;23.84;54.46
70458;BME280;57919;56.194;95.716;2022-07-06T10:00:56;97800.28;;;23.54;55.19
70458;BME280;57919;56.194;95.716;2022-07-06T10:10:59;97821.41;;;23.48;55.92
70458;BME280;57919;56.194;95.716;2022-07-06T10:21:02;97821.97;;;23.84;55.17
70458;BME280;57919;56.194;95.716;2022-07-06T10:31:05;97822.16;;;23.77;55.28
70458;BME280;57919;56.194;95.716;2022-07-06T10:41:08;97843.00;;;23.68;55.08
70458;BME280;57919;56.194;95.716;2022-07-06T10:51:12;97834.22;;;23.38;55.49
70458;BME280;57919;56.194;95.716;2022-07-06T11:01:15;97827.53;;;23.17;55.99
70458;BME280;57919;56.194;95.716;2022-07-06T11:11:20;97838.63;;;23.22;56.00
70458;BME280;57919;56.194;95.716;2022-07-06T11:21:23;97841.41;;;23.22;55.92
70458;BME280;57919;56.194;95.716;2022-07-06T11:31:38;97844.47;;;23.09;55.90
70458;BME280;57919;56.194;95.716;2022-07-06T11:41:42;97859.22;;;23.14;56.12
70458;BME280;57919;56.194;95.716;2022-07-06T11:51:46;97857.03;;;23.16;55.89
70458;BME280;57919;56.194;95.716;2022-07-06T12:01:48;97843.38;;;22.93;56.19
70458;BME280;57919;56.194;95.716;2022-07-06T12:11:50;97874.22;;;22.78;56.70
70458;BME280;57919;56.194;95.716;2022-07-06T12:21:52;97875.19;;;22.44;56.93
70458;BME280;57919;56.194;95.716;2022-07-06T12:31:56;97874.28;;;22.27;57.29
70458;BME280;57919;56.194;95.716;2022-07-06T12:42:03;97875.84;;;21.99;58.17
70458;BME280;57919;56.194;95.716;2022-07-06T13:02:16;97920.97;;;21.51;58.77
70458;BME280;57919;56.194;95.716;2022-07-06T13:12:19;97924.63;;;21.22;59.54
70458;BME280;57919;56.194;95.716;2022-07-06T13:22:21;97927.72;;;20.95;59.67
70458;BME280;57919;56.194;95.716;2022-07-06T13:32:22;97924.28;;;20.70;60.20
70458;BME280;57919;56.194;95.716;2022-07-06T13:42:24;97930.94;;;20.44;60.59
70458;BME280;57919;56.194;95.716;2022-07-06T13:52:26;97935.13;;;20.28;60.78
70458;BME280;57919;56.194;95.716;2022-07-06T14:02:29;97940.59;;;20.10;60.86
70458;BME280;57919;56.194;95.716;2022-07-06T14:12:31;97947.34;;;19.89;61.17
70458;BME280;57919;56.194;95.716;2022-07-06T14:22:33;97946.09;;;19.67;61.60
70458;BME280;57919;56.194;95.716;2022-07-06T14:32:35;97956.97;;;19.49;61.63
70458;BME280;57919;56.194;95.716;2022-07-06T14:42:36;97969.72;;;19.36;62.15
70458;BME280;57919;56.194;95.716;2022-07-06T14:52:38;97967.69;;;19.25;62.03
70458;BME280;57919;56.194;95.716;2022-07-06T15:02:41;97977.19;;;19.23;62.17
70458;BME280;57919;56.194;95.716;2022-07-06T15:12:43;97962.94;;;19.08;62.49
70458;BME280;57919;56.194;95.716;2022-07-06T15:22:46;97948.00;;;19.03;62.84
70458;BME280;57919;56.194;95.716;2022-07-06T15:32:48;97939.88;;;18.90;63.11
70458;BME280;57919;56.194;95.716;2022-07-06T15:42:52;97958.25;;;18.83;63.21
70458;BME280;57919;56.194;95.716;2022-07-06T15:52:55;97968.59;;;18.81;63.43
70458;BME280;57919;56.194;95.716;2022-07-06T16:02:57;98004.44;;;18.73;63.63
70458;BME280;57919;56.194;95.716;2022-07-06T16:12:59;98003.63;;;18.66;63.86
70458;BME280;57919;56.194;95.716;2022-07-06T16:23:01;97985.94;;;18.62;64.25
70458;BME280;57919;56.194;95.716;2022-07-06T16:33:03;97994.63;;;18.46;64.71
70458;BME280;57919;56.194;95.716;2022-07-06T16:43:05;97997.38;;;18.32;64.96
70458;BME280;57919;56.194;95.716;2022-07-06T16:53:08;97999.13;;;18.07;65.64
70458;BME280;57919;56.194;95.716;2022-07-06T17:03:10;97978.09;;;17.81;65.88
70458;BME280;57919;56.194;95.716;2022-07-06T17:13:12;98004.41;;;17.69;66.22
70458;BME280;57919;56.194;95.716;2022-07-06T17:23:14;98010.91;;;17.55;66.74
70458;BME280;57919;56.194;95.716;2022-07-06T17:33:17;98002.88;;;17.27;67.27
70458;BME280;57919;56.194;95.716;2022-07-06T17:43:19;98007.88;;;17.03;67.53
70458;BME280;57919;56.194;95.716;2022-07-06T17:53:21;98009.47;;;16.78;68.26
70458;BME280;57919;56.194;95.716;2022-07-06T18:03:22;97990.78;;;16.40;68.86
70458;BME280;57919;56.194;95.716;2022-07-06T18:13:26;97980.16;;;16.18;69.14
70458;BME280;57919;56.194;95.716;2022-07-06T18:23:28;98000.31;;;16.17;69.51
70458;BME280;57919;56.194;95.716;2022-07-06T18:33:30;98001.91;;;16.04;69.67
70458;BME280;57919;56.194;95.716;2022-07-06T18:43:32;97997.22;;;15.92;69.81
70458;BME280;57919;56.194;95.716;2022-07-06T18:53:35;98000.94;;;15.84;70.23
70458;BME280;57919;56.194;95.716;2022-07-06T19:03:36;98000.50;;;15.80;70.37
70458;BME280;57919;56.194;95.716;2022-07-06T19:13:38;97996.72;;;15.81;70.58
70458;BME280;57919;56.194;95.716;2022-07-06T19:23:41;97990.88;;;15.85;70.77
70458;BME280;57919;56.194;95.716;2022-07-06T19:33:43;97966.81;;;15.67;71.07
70458;BME280;57919;56.194;95.716;2022-07-06T19:43:45;97995.38;;;15.71;71.10
70458;BME280;57919;56.194;95.716;2022-07-06T19:53:47;97990.66;;;15.58;71.41
70458;BME280;57919;56.194;95.716;2022-07-06T20:03:52;97981.16;;;15.54;71.53
70458;BME280;57919;56.194;95.716;2022-07-06T20:13:54;97981.09;;;15.47;71.79
70458;BME280;57919;56.194;95.716;2022-07-06T20:23:57;97983.13;;;15.39;71.99
70458;BME280;57919;56.194;95.716;2022-07-06T20:33:58;97980.09;;;15.27;72.36
70458;BME280;57919;56.194;95.716;2022-07-06T20:44:00;97995.91;;;15.38;72.19
70458;BME280;57919;56.194;95.716;2022-07-06T20:54:02;97991.41;;;15.52;71.99
70458;BME280;57919;56.194;95.716;2022-07-06T21:04:04;97987.66;;;15.53;72.33
70458;BME280;57919;56.194;95.716;2022-07-06T21:14:06;98004.16;;;15.66;72.42
70458;BME280;57919;56.194;95.716;2022-07-06T21:24:08;98003.06;;;15.89;72.39
70458;BME280;57919;56.194;95.716;2022-07-06T21:34:10;97988.06;;;16.06;71.82
70458;BME280;57919;56.194;95.716;2022-07-06T21:44:12;98003.72;;;16.25;72.31
70458;BME280;57919;56.194;95.716;2022-07-06T21:54:14;98005.66;;;16.31;72.04
70458;BME280;57919;56.194;95.716;2022-07-06T22:04:16;97994.72;;;16.31;72.33
70458;BME280;57919;56.194;95.716;2022-07-06T22:14:17;98011.97;;;16.38;72.22
70458;BME280;57919;56.194;95.716;2022-07-06T22:24:20;98012.66;;;16.47;72.06
70458;BME280;57919;56.194;95.716;2022-07-06T22:34:22;98012.28;;;16.57;72.13
70458;BME280;57919;56.194;95.716;2022-07-06T22:44:24;98022.41;;;16.63;71.94
70458;BME280;57919;56.194;95.716;2022-07-06T22:54:26;98021.22;;;16.78;72.11
70458;BME280;57919;56.194;95.716;2022-07-06T23:04:28;98027.09;;;17.43;70.79
70458;BME280;57919;56.194;95.716;2022-07-06T23:14:30;98029.66;;;17.91;69.67
70458;BME280;57919;56.194;95.716;2022-07-06T23:24:32;98023.50;;;18.35;68.97
70458;BME280;57919;56.194;95.716;2022-07-06T23:34:34;98032.53;;;18.62;68.54
70458;BME280;57919;56.194;95.716;2022-07-06T23:44:36;98039.13;;;20.00;65.92
70458;BME280;57919;56.194;95.716;2022-07-06T23:54:38;98037.78;;;20.52;64.54
